createdAt,value
2022-08-07T00:00:26.064Z,95.10
2022-08-07T00:02:53.754Z,95.50
2022-08-07T00:05:21.310Z,95.20
2022-08-07T00:07:59.797Z,95.40
2022-08-07T00:10:29.776Z,95.50
2022-08-07T00:13:23.600Z,95.70
2022-08-07T00:15:52.049Z,95.90
2022-08-07T00:18:24.148Z,96.10
2022-08-07T00:21:07.818Z,96.20
2022-08-07T00:23:37.649Z,96.30
2022-08-07T00:26:18.781Z,96.30
2022-08-07T00:28:58.371Z,96.20
2022-08-07T00:31:37.413Z,96.00
2022-08-07T00:34:05.445Z,95.90
2022-08-07T00:36:36.388Z,96.10
2022-08-07T00:39:16.137Z,96.10
2022-08-07T00:41:53.084Z,96.00
2022-08-07T00:44:21.678Z,95.90
2022-08-07T00:46:48.744Z,95.80
2022-08-07T00:49:24.654Z,95.80
2022-08-07T00:52:06.449Z,95.80
2022-08-07T00:54:36.983Z,96.10
2022-08-07T00:57:09.164Z,96.50
2022-08-07T00:59:37.813Z,96.80
2022-08-07T01:02:08.927Z,96.70
2022-08-07T01:04:43.114Z,96.60
2022-08-07T01:07:11.146Z,96.70
2022-08-07T01:10:05.019Z,96.70
2022-08-07T01:12:30.068Z,96.70
2022-08-07T01:15:01.077Z,96.70
2022-08-07T01:17:30.207Z,96.80
2022-08-07T01:20:08.008Z,97.00
2022-08-07T01:22:36.955Z,97.20
2022-08-07T01:25:05.248Z,97.30
2022-08-07T01:27:52.569Z,97.40
2022-08-07T01:30:27.007Z,97.40
2022-08-07T01:32:55.837Z,97.70
2022-08-07T01:35:26.715Z,97.90
2022-08-07T01:38:13.925Z,97.90
2022-08-07T01:41:02.022Z,98.00
2022-08-07T01:43:34.784Z,98.10
2022-08-07T01:46:08.112Z,98.30
2022-08-07T01:48:42.288Z,98.20
2022-08-07T01:52:00.999Z,98.30
2022-08-07T01:54:32.902Z,98.20
2022-08-07T01:57:28.894Z,98.10
2022-08-07T02:00:13.086Z,97.90
2022-08-07T02:03:19.380Z,98.00
2022-08-07T02:06:00.816Z,98.20
2022-08-07T02:08:37.953Z,98.10
2022-08-07T02:11:08.303Z,98.20
2022-08-07T02:13:57.684Z,98.20
2022-08-07T02:16:33.675Z,98.20
2022-08-07T02:20:07.155Z,98.20
2022-08-07T02:21:58.635Z,98.30
2022-08-07T02:24:29.684Z,98.30
2022-08-07T02:27:01.159Z,98.10
2022-08-07T02:29:30.683Z,98.00
2022-08-07T02:32:00.143Z,98.00
2022-08-07T02:34:28.766Z,97.90
2022-08-07T02:36:59.302Z,97.80
2022-08-07T02:39:43.802Z,98.10
2022-08-07T02:42:19.275Z,98.00
2022-08-07T02:44:51.974Z,98.70
2022-08-07T02:47:24.059Z,98.60
2022-08-07T02:50:03.190Z,98.70
2022-08-07T02:52:41.476Z,98.90
2022-08-07T02:55:28.569Z,98.90
2022-08-07T02:58:15.478Z,99.10
2022-08-07T03:00:47.407Z,98.80
2022-08-07T03:03:21.190Z,98.90
2022-08-07T03:05:53.582Z,98.80
2022-08-07T03:08:26.850Z,98.60
2022-08-07T03:10:58.213Z,98.40
2022-08-07T03:13:39.082Z,98.40
2022-08-07T03:16:17.594Z,98.70
2022-08-07T03:18:50.824Z,98.90
2022-08-07T03:21:19.238Z,99.10
2022-08-07T03:24:20.341Z,99.20
2022-08-07T03:26:35.793Z,99.10
2022-08-07T03:29:14.755Z,99.00
2022-08-07T03:31:49.877Z,98.80
2022-08-07T03:34:22.298Z,98.70
2022-08-07T03:36:54.054Z,98.70
2022-08-07T03:39:59.884Z,98.80
2022-08-07T03:42:14.201Z,99.10
2022-08-07T03:44:42.844Z,99.10
2022-08-07T03:47:15.124Z,99.20
2022-08-07T03:49:52.001Z,99.20
2022-08-07T03:52:28.592Z,99.30
2022-08-07T03:55:06.217Z,99.30
2022-08-07T03:58:33.238Z,99.20
2022-08-07T04:00:30.368Z,99.10
2022-08-07T04:02:59.656Z,99.20
2022-08-07T04:05:40.204Z,99.40
2022-08-07T04:08:12.575Z,99.30
2022-08-07T04:10:53.943Z,99.30
2022-08-07T04:13:27.776Z,99.30
2022-08-07T04:15:55.492Z,99.50
2022-08-07T04:18:56.739Z,99.70
2022-08-07T04:21:10.273Z,99.50
2022-08-07T04:23:43.411Z,99.40
2022-08-07T04:26:28.675Z,99.60
2022-08-07T04:28:57.074Z,99.60
2022-08-07T04:31:38.812Z,99.90
2022-08-07T04:34:16.402Z,99.90
2022-08-07T04:36:48.742Z,99.90
2022-08-07T04:39:20.014Z,99.90
2022-08-07T04:41:53.171Z,99.90
2022-08-07T04:44:20.849Z,99.90
2022-08-07T04:47:08.284Z,99.90
2022-08-07T04:50:03.991Z,99.90
2022-08-07T04:52:53.970Z,99.90
2022-08-07T04:58:16.448Z,99.90
2022-08-07T04:59:18.226Z,99.90
2022-08-07T05:02:01.954Z,99.90
2022-08-07T05:04:50.013Z,99.90
2022-08-07T05:07:36.944Z,99.90
2022-08-07T05:10:16.298Z,99.90
2022-08-07T05:14:44.584Z,98.90
2022-08-07T05:15:50.907Z,97.70
2022-08-07T05:18:23.544Z,96.60
2022-08-07T05:20:54.962Z,95.60
2022-08-07T05:23:36.148Z,93.90
2022-08-07T05:26:11.610Z,92.50
2022-08-07T05:28:48.762Z,91.40
2022-08-07T05:31:25.132Z,90.40
2022-08-07T05:34:04.509Z,87.20
2022-08-07T05:36:35.749Z,84.00
2022-08-07T05:40:06.871Z,82.20
2022-08-07T05:42:02.583Z,80.30
2022-08-07T05:44:34.040Z,76.40
2022-08-07T05:47:18.050Z,74.10
2022-08-07T05:49:52.110Z,71.40
2022-08-07T05:52:32.284Z,70.10
2022-08-07T05:55:07.223Z,69.00
2022-08-07T05:57:44.983Z,66.50
2022-08-07T06:00:16.468Z,65.50
2022-08-07T06:02:53.142Z,65.10
2022-08-07T06:05:26.008Z,63.80
2022-08-07T06:08:29.615Z,62.80
2022-08-07T06:10:51.349Z,61.80
2022-08-07T06:14:10.573Z,62.00
2022-08-07T06:16:10.297Z,61.20
2022-08-07T06:18:43.053Z,60.80
2022-08-07T06:22:15.117Z,60.20
2022-08-07T06:24:52.491Z,58.50
2022-08-07T06:26:51.550Z,58.10
2022-08-07T06:29:18.808Z,57.00
2022-08-07T06:31:50.303Z,55.50
2022-08-07T06:34:23.279Z,54.30
2022-08-07T06:36:52.162Z,52.50
2022-08-07T06:40:16.096Z,52.00
2022-08-07T06:42:16.081Z,51.70
2022-08-07T06:45:19.285Z,51.50
2022-08-07T06:47:58.452Z,51.10
2022-08-07T06:50:33.578Z,51.10
2022-08-07T06:53:04.584Z,50.10
2022-08-07T06:55:54.003Z,50.10
2022-08-07T06:58:27.593Z,50.20
2022-08-07T07:01:06.021Z,50.40
2022-08-07T07:03:47.668Z,49.10
2022-08-07T07:06:23.801Z,50.30
2022-08-07T07:08:53.172Z,49.70
2022-08-07T07:12:09.095Z,50.20
2022-08-07T07:14:10.306Z,49.30
2022-08-07T07:16:49.418Z,49.70
2022-08-07T07:19:55.612Z,48.20
2022-08-07T07:22:36.073Z,48.30
2022-08-07T07:25:02.918Z,48.00
2022-08-07T07:28:03.669Z,47.60
2022-08-07T07:30:39.837Z,48.30
2022-08-07T07:33:11.381Z,48.60
2022-08-07T07:35:44.051Z,47.80
2022-08-07T07:38:30.070Z,48.70
2022-08-07T07:41:02.431Z,49.20
2022-08-07T07:44:14.445Z,51.20
2022-08-07T07:46:37.035Z,48.70
2022-08-07T07:50:36.533Z,48.50
2022-08-07T07:51:59.778Z,48.20
2022-08-07T07:54:29.784Z,49.20
2022-08-07T07:56:58.090Z,48.20
2022-08-07T07:59:52.669Z,47.30
2022-08-07T08:02:34.306Z,47.10
2022-08-07T08:05:11.503Z,45.60
2022-08-07T08:07:59.690Z,46.40
2022-08-07T08:10:35.671Z,46.90
2022-08-07T08:13:10.300Z,45.80
2022-08-07T08:15:59.133Z,46.20
2022-08-07T08:18:29.384Z,46.40
2022-08-07T08:21:00.391Z,45.90
2022-08-07T08:23:49.506Z,45.50
2022-08-07T08:26:38.557Z,44.60
2022-08-07T08:29:08.275Z,43.10
2022-08-07T08:32:17.258Z,42.80
2022-08-07T08:34:36.407Z,43.20
2022-08-07T08:37:09.922Z,43.50
2022-08-07T08:39:55.084Z,44.00
2022-08-07T08:42:51.734Z,45.00
2022-08-07T08:45:26.825Z,45.30
2022-08-07T08:48:32.415Z,44.70
2022-08-07T08:51:49.211Z,43.70
2022-08-07T08:54:35.308Z,42.90
2022-08-07T08:57:08.414Z,44.50
2022-08-07T08:59:59.403Z,44.50
2022-08-07T09:02:39.097Z,44.20
2022-08-07T09:05:53.256Z,44.50
2022-08-07T09:08:41.539Z,44.80
2022-08-07T09:11:24.207Z,42.60
2022-08-07T09:14:36.427Z,40.90
2022-08-07T09:17:18.765Z,38.10
2022-08-07T09:20:01.785Z,40.20
2022-08-07T09:24:31.221Z,39.50
2022-08-07T09:26:11.470Z,39.90
2022-08-07T09:30:00.560Z,38.60
2022-08-07T09:31:54.921Z,37.80
2022-08-07T09:36:04.464Z,36.50
2022-08-07T09:38:12.069Z,37.50
2022-08-07T09:41:05.065Z,37.80
2022-08-07T09:44:05.871Z,39.70
2022-08-07T09:47:49.622Z,39.60
2022-08-07T09:50:18.679Z,40.60
2022-08-07T09:53:05.327Z,43.40
2022-08-07T09:56:03.786Z,42.70
2022-08-07T09:59:14.112Z,39.10
2022-08-07T10:01:51.355Z,36.90
2022-08-07T10:04:52.986Z,40.00
2022-08-07T10:07:39.887Z,41.00
2022-08-07T10:11:17.149Z,37.80
2022-08-07T10:14:23.121Z,42.40
2022-08-07T10:17:14.176Z,40.40
2022-08-07T10:19:58.169Z,39.80
2022-08-07T10:23:08.238Z,39.40
2022-08-07T10:25:44.788Z,39.00
2022-08-07T10:28:27.857Z,39.70
2022-08-07T10:31:21.830Z,37.30
2022-08-07T10:34:17.834Z,41.20
2022-08-07T10:37:04.780Z,41.80
2022-08-07T10:40:05.210Z,39.10
2022-08-07T10:42:46.949Z,39.50
2022-08-07T10:45:45.180Z,36.40
2022-08-07T10:48:46.548Z,37.00
2022-08-07T10:51:39.681Z,37.10
2022-08-07T10:54:38.044Z,33.70
2022-08-07T10:57:51.602Z,35.40
2022-08-07T11:00:39.762Z,37.30
2022-08-07T11:03:37.858Z,36.50
2022-08-07T11:07:24.446Z,35.00
2022-08-07T11:10:07.896Z,36.90
2022-08-07T11:12:49.176Z,35.80
2022-08-07T11:15:33.175Z,35.20
2022-08-07T11:18:14.151Z,32.20
2022-08-07T11:21:04.259Z,34.00
2022-08-07T11:24:04.101Z,34.20
2022-08-07T11:26:51.207Z,34.60
2022-08-07T11:29:41.914Z,32.90
2022-08-07T11:32:25.752Z,34.20
2022-08-07T11:34:59.207Z,31.30
2022-08-07T11:37:58.099Z,33.30
2022-08-07T11:40:42.080Z,34.10
2022-08-07T11:43:54.289Z,30.40
2022-08-07T11:46:36.761Z,33.20
2022-08-07T11:49:50.267Z,35.60
2022-08-07T11:52:37.725Z,34.70
2022-08-07T11:56:25.585Z,35.80
2022-08-07T11:58:33.543Z,34.30
2022-08-07T12:01:25.635Z,34.60
2022-08-07T12:04:42.993Z,33.10
2022-08-07T12:07:39.336Z,34.60
2022-08-07T12:10:27.587Z,34.80
2022-08-07T12:13:18.760Z,33.50
2022-08-07T12:16:09.073Z,33.30
2022-08-07T12:18:57.603Z,33.30
2022-08-07T12:22:36.088Z,31.90
2022-08-07T12:25:02.330Z,33.60
2022-08-07T12:28:09.718Z,33.30
2022-08-07T12:30:34.845Z,32.70
2022-08-07T12:33:09.337Z,33.70
2022-08-07T12:35:58.004Z,30.90
2022-08-07T12:38:30.599Z,31.90
2022-08-07T12:41:11.507Z,34.40
2022-08-07T12:44:03.433Z,34.00
2022-08-07T12:46:39.540Z,34.10
2022-08-07T12:49:39.618Z,32.90
2022-08-07T12:52:17.925Z,34.90
2022-08-07T12:55:01.552Z,33.70
2022-08-07T12:57:38.968Z,33.90
2022-08-07T13:00:36.005Z,34.20
2022-08-07T13:03:54.878Z,33.30
2022-08-07T13:06:54.430Z,33.00
2022-08-07T13:10:20.796Z,33.10
2022-08-07T13:13:48.620Z,31.70
2022-08-07T13:16:31.201Z,33.70
2022-08-07T13:19:46.086Z,30.90
2022-08-07T13:22:27.657Z,32.50
2022-08-07T13:25:10.514Z,30.90
2022-08-07T13:28:11.236Z,30.60
2022-08-07T13:30:52.035Z,32.00
2022-08-07T13:34:30.293Z,31.90
2022-08-07T13:36:39.666Z,33.30
2022-08-07T13:40:33.881Z,31.70
2022-08-07T13:42:21.462Z,31.10
2022-08-07T13:45:11.472Z,31.20
2022-08-07T13:48:07.714Z,32.30
2022-08-07T13:50:34.859Z,33.20
2022-08-07T13:53:19.445Z,33.00
2022-08-07T13:55:55.113Z,31.00
2022-08-07T13:58:50.434Z,31.50
2022-08-07T14:01:26.243Z,33.40
2022-08-07T14:04:05.204Z,35.50
2022-08-07T14:06:39.074Z,38.10
2022-08-07T14:09:09.941Z,37.10
2022-08-07T14:12:00.974Z,36.10
2022-08-07T14:14:41.869Z,38.50
2022-08-07T14:17:13.229Z,38.40
2022-08-07T14:20:42.873Z,39.10
2022-08-07T14:23:31.720Z,39.80
2022-08-07T14:26:28.654Z,39.70
2022-08-07T14:29:10.424Z,38.70
2022-08-07T14:31:56.462Z,37.10
2022-08-07T14:34:29.975Z,38.00
2022-08-07T14:37:02.020Z,36.40
2022-08-07T14:40:16.274Z,38.80
2022-08-07T14:45:48.935Z,39.70
2022-08-07T14:48:27.228Z,40.10
2022-08-07T14:50:56.785Z,37.60
2022-08-07T14:54:03.713Z,40.10
2022-08-07T14:56:29.846Z,40.70
2022-08-07T14:59:03.012Z,40.20
2022-08-07T15:04:25.242Z,41.50
2022-08-07T15:06:52.583Z,41.00
2022-08-07T15:15:09.244Z,43.30
2022-08-07T15:17:58.937Z,43.20
2022-08-07T15:20:54.704Z,42.30
2022-08-07T15:26:20.767Z,42.00
2022-08-07T15:28:58.414Z,42.80
2022-08-07T15:32:00.552Z,42.60
2022-08-07T15:34:17.108Z,39.90
2022-08-07T15:37:04.293Z,40.00
2022-08-07T15:39:56.291Z,40.70
2022-08-07T15:42:44.454Z,38.60
2022-08-07T15:45:22.494Z,39.00
2022-08-07T15:51:07.817Z,38.70
2022-08-07T15:53:53.118Z,37.60
2022-08-07T15:56:45.264Z,36.20
2022-08-07T15:59:17.316Z,36.80
2022-08-07T16:02:02.577Z,37.70
2022-08-07T16:04:34.563Z,36.50
2022-08-07T16:08:31.866Z,37.70
2022-08-07T16:10:00.240Z,38.10
2022-08-07T16:12:41.457Z,40.10
2022-08-07T16:16:06.566Z,39.20
2022-08-07T16:18:54.665Z,38.00
2022-08-07T16:22:01.751Z,38.70
2022-08-07T16:24:54.116Z,40.30
2022-08-07T16:27:39.973Z,41.40
2022-08-07T16:30:29.198Z,43.50
2022-08-07T16:34:02.757Z,43.20
2022-08-07T16:36:07.545Z,42.30
2022-08-07T16:39:01.279Z,44.20
2022-08-07T16:41:41.769Z,41.70
2022-08-07T16:45:23.345Z,41.50
2022-08-07T16:48:27.600Z,39.90
2022-08-07T16:51:51.861Z,41.40
2022-08-07T16:54:33.015Z,43.50
2022-08-07T16:57:28.830Z,44.60
2022-08-07T17:00:16.302Z,47.50
2022-08-07T17:03:18.635Z,44.60
2022-08-07T17:06:29.722Z,49.60
2022-08-07T17:10:07.791Z,48.30
2022-08-07T17:12:35.052Z,45.70
2022-08-07T17:15:16.257Z,48.30
2022-08-07T17:17:47.409Z,46.60
2022-08-07T17:20:33.622Z,46.10
2022-08-07T17:23:08.545Z,45.10
2022-08-07T17:26:04.735Z,47.20
2022-08-07T17:29:04.789Z,44.90
2022-08-07T17:31:44.369Z,47.20
2022-08-07T17:35:51.057Z,47.20
2022-08-07T17:38:21.088Z,45.90
2022-08-07T17:42:01.523Z,47.70
2022-08-07T17:44:33.522Z,48.10
2022-08-07T17:47:38.450Z,48.60
2022-08-07T17:50:30.566Z,49.60
2022-08-07T17:53:07.484Z,47.90
2022-08-07T17:56:06.354Z,48.40
2022-08-07T17:58:52.445Z,50.80
2022-08-07T18:01:36.631Z,51.10
2022-08-07T18:04:30.816Z,51.90
2022-08-07T18:07:19.246Z,52.30
2022-08-07T18:10:07.229Z,51.80
2022-08-07T18:12:55.555Z,52.40
2022-08-07T18:15:32.993Z,54.70
2022-08-07T18:18:47.544Z,56.50
2022-08-07T18:21:42.023Z,56.20
2022-08-07T18:24:33.027Z,57.20
2022-08-07T18:27:17.463Z,56.50
2022-08-07T18:30:06.737Z,56.30
2022-08-07T18:33:36.494Z,59.80
2022-08-07T18:36:17.759Z,58.00
2022-08-07T18:40:08.769Z,59.80
2022-08-07T18:42:16.339Z,60.70
2022-08-07T18:45:43.446Z,61.90
2022-08-07T18:48:10.321Z,63.10
2022-08-07T18:51:16.098Z,64.00
2022-08-07T18:54:31.103Z,64.00
2022-08-07T18:57:30.331Z,64.50
2022-08-07T19:00:34.095Z,66.50
2022-08-07T19:03:16.337Z,67.20
2022-08-07T19:06:16.488Z,68.00
2022-08-07T19:08:46.548Z,68.70
2022-08-07T19:11:35.754Z,70.20
2022-08-07T19:14:11.680Z,71.10
2022-08-07T19:17:08.019Z,72.20
2022-08-07T19:20:06.630Z,73.20
2022-08-07T19:23:57.121Z,73.20
2022-08-07T19:26:24.722Z,74.50
2022-08-07T19:30:57.665Z,75.20
2022-08-07T19:32:10.678Z,75.90
2022-08-07T19:34:47.844Z,76.50
2022-08-07T19:37:19.057Z,76.70
2022-08-07T19:40:02.050Z,77.60
2022-08-07T19:42:40.553Z,78.20
2022-08-07T19:46:04.763Z,78.10
2022-08-07T19:48:04.961Z,79.00
2022-08-07T19:50:53.426Z,79.50
2022-08-07T19:54:33.108Z,80.00
2022-08-07T19:56:58.592Z,80.00
2022-08-07T19:59:00.035Z,80.40
2022-08-07T20:01:52.314Z,80.70
2022-08-07T20:04:31.683Z,80.70
2022-08-07T20:07:09.262Z,80.70
2022-08-07T20:10:37.235Z,80.50
2022-08-07T20:12:42.806Z,81.00
2022-08-07T20:15:22.118Z,80.80
2022-08-07T20:17:56.299Z,80.80
2022-08-07T20:20:31.948Z,80.80
2022-08-07T20:23:10.995Z,81.00
2022-08-07T20:25:53.174Z,81.00
2022-08-07T20:28:29.490Z,81.20
2022-08-07T20:30:59.173Z,81.50
2022-08-07T20:33:37.605Z,81.70
2022-08-07T20:36:13.562Z,82.00
2022-08-07T20:38:59.757Z,81.90
2022-08-07T20:41:34.276Z,82.40
2022-08-07T20:44:12.851Z,82.20
2022-08-07T20:46:44.278Z,82.80
2022-08-07T20:50:00.918Z,83.00
2022-08-07T20:52:13.806Z,83.10
2022-08-07T20:54:53.444Z,83.10
2022-08-07T20:57:24.825Z,83.10
2022-08-07T21:00:06.669Z,83.40
2022-08-07T21:02:58.067Z,83.50
2022-08-07T21:05:54.855Z,84.00
2022-08-07T21:08:39.214Z,84.30
2022-08-07T21:11:14.494Z,84.80
2022-08-07T21:14:29.555Z,85.00
2022-08-07T21:16:56.003Z,85.30
2022-08-07T21:19:32.006Z,85.20
2022-08-07T21:22:16.355Z,86.20
2022-08-07T21:25:13.544Z,85.60
2022-08-07T21:27:48.305Z,86.20
2022-08-07T21:30:30.169Z,86.40
2022-08-07T21:33:41.443Z,86.70
2022-08-07T21:36:31.734Z,86.50
2022-08-07T21:39:46.242Z,87.00
2022-08-07T21:42:46.669Z,87.30
2022-08-07T21:46:10.705Z,87.70
2022-08-07T21:48:27.765Z,88.00
2022-08-07T21:51:08.127Z,88.10
2022-08-07T21:53:52.787Z,88.40
2022-08-07T21:56:47.023Z,88.90
2022-08-07T22:00:04.546Z,88.80
2022-08-07T22:02:47.632Z,89.50
2022-08-07T22:05:21.808Z,88.70
2022-08-07T22:08:10.515Z,88.20
2022-08-07T22:10:38.533Z,88.30
2022-08-07T22:13:14.329Z,88.70
2022-08-07T22:16:43.622Z,88.50
2022-08-07T22:18:47.549Z,88.50
2022-08-07T22:21:20.939Z,88.80
2022-08-07T22:23:58.029Z,89.00
2022-08-07T22:26:40.106Z,89.00
2022-08-07T22:29:33.891Z,89.00
2022-08-07T22:32:28.894Z,89.20
2022-08-07T22:35:02.342Z,89.20
2022-08-07T22:38:04.523Z,89.00
2022-08-07T22:41:09.001Z,89.70
2022-08-07T22:43:56.411Z,90.20
2022-08-07T22:47:06.230Z,90.20
2022-08-07T22:49:54.106Z,90.30
2022-08-07T22:52:53.911Z,90.30
2022-08-07T22:55:58.534Z,90.40
2022-08-07T22:58:53.300Z,90.60
2022-08-07T23:01:49.812Z,90.60
2022-08-07T23:04:30.923Z,90.80
2022-08-07T23:07:39.816Z,90.90
2022-08-07T23:10:37.499Z,91.00
2022-08-07T23:13:48.447Z,90.90
2022-08-07T23:16:54.775Z,90.90
2022-08-07T23:20:09.230Z,91.20
2022-08-07T23:23:00.782Z,91.20
2022-08-07T23:25:46.117Z,91.30
2022-08-07T23:28:22.287Z,91.40
2022-08-07T23:31:11.536Z,91.30
2022-08-07T23:34:36.600Z,91.50
2022-08-07T23:37:18.671Z,91.60
2022-08-07T23:40:04.204Z,91.70
2022-08-07T23:43:16.439Z,91.80
2022-08-07T23:46:02.830Z,92.10
2022-08-07T23:49:49.877Z,92.30
2022-08-07T23:53:05.211Z,92.30
2022-08-07T23:55:53.074Z,92.20
2022-08-07T23:58:43.190Z,92.10
